sensor_id;sensor_type;location;lat;lon;timestamp;P1;durP1;ratioP1;P2;durP2;ratioP2
7875;SDS011;69649;53.712;9.680;2023-08-20T00:01:38;10.30;;;7.50;;
7875;SDS011;69649;53.712;9.680;2023-08-20T00:04:04;11.70;;;8.73;;
7875;SDS011;69649;53.712;9.680;2023-08-20T00:06:31;17.03;;;8.87;;
7875;SDS011;69649;53.712;9.680;2023-08-20T00:08:57;10.93;;;7.53;;
7875;SDS011;69649;53.712;9.680;2023-08-20T00:11:23;13.30;;;7.63;;
7875;SDS011;69649;53.712;9.680;2023-08-20T00:13:49;14.77;;;8.50;;
7875;SDS011;69649;53.712;9.680;2023-08-20T00:16:15;15.83;;;8.23;;
7875;SDS011;69649;53.712;9.680;2023-08-20T00:18:41;13.57;;;8.10;;
7875;SDS011;69649;53.712;9.680;2023-08-20T00:21:08;17.47;;;9.00;;
7875;SDS011;69649;53.712;9.680;2023-08-20T00:23:38;14.93;;;7.80;;
7875;SDS011;69649;53.712;9.680;2023-08-20T00:26:02;12.70;;;8.23;;
7875;SDS011;69649;53.712;9.680;2023-08-20T00:28:29;14.03;;;7.87;;
7875;SDS011;69649;53.712;9.680;2023-08-20T00:30:54;16.47;;;8.73;;
7875;SDS011;69649;53.712;9.680;2023-08-20T00:33:20;15.47;;;8.27;;
7875;SDS011;69649;53.712;9.680;2023-08-20T00:35:46;13.87;;;9.07;;
7875;SDS011;69649;53.712;9.680;2023-08-20T00:38:12;13.57;;;8.57;;
7875;SDS011;69649;53.712;9.680;2023-08-20T00:40:37;11.37;;;7.87;;
7875;SDS011;69649;53.712;9.680;2023-08-20T00:43:03;11.00;;;8.00;;
7875;SDS011;69649;53.712;9.680;2023-08-20T00:45:29;14.03;;;7.83;;
7875;SDS011;69649;53.712;9.680;2023-08-20T00:47:56;13.93;;;8.80;;
7875;SDS011;69649;53.712;9.680;2023-08-20T00:50:22;8.83;;;7.87;;
7875;SDS011;69649;53.712;9.680;2023-08-20T00:52:48;9.53;;;7.70;;
7875;SDS011;69649;53.712;9.680;2023-08-20T00:55:14;10.70;;;7.40;;
7875;SDS011;69649;53.712;9.680;2023-08-20T00:57:40;15.20;;;9.30;;
7875;SDS011;69649;53.712;9.680;2023-08-20T01:00:07;15.47;;;7.83;;
7875;SDS011;69649;53.712;9.680;2023-08-20T01:02:35;12.47;;;7.07;;
7875;SDS011;69649;53.712;9.680;2023-08-20T01:05:02;19.23;;;8.07;;
7875;SDS011;69649;53.712;9.680;2023-08-20T01:10:34;9.50;;;7.33;;
7875;SDS011;69649;53.712;9.680;2023-08-20T01:13:09;11.10;;;7.80;;
7875;SDS011;69649;53.712;9.680;2023-08-20T01:15:36;11.63;;;6.80;;
7875;SDS011;69649;53.712;9.680;2023-08-20T01:18:02;11.17;;;7.70;;
7875;SDS011;69649;53.712;9.680;2023-08-20T01:20:30;11.57;;;7.23;;
7875;SDS011;69649;53.712;9.680;2023-08-20T01:28:33;19.40;;;8.23;;
7875;SDS011;69649;53.712;9.680;2023-08-20T01:31:01;19.77;;;9.03;;
7875;SDS011;69649;53.712;9.680;2023-08-20T01:33:28;16.13;;;9.10;;
7875;SDS011;69649;53.712;9.680;2023-08-20T01:35:54;19.83;;;10.27;;
7875;SDS011;69649;53.712;9.680;2023-08-20T01:38:21;18.47;;;10.77;;
7875;SDS011;69649;53.712;9.680;2023-08-20T01:40:47;15.30;;;9.90;;
7875;SDS011;69649;53.712;9.680;2023-08-20T01:43:14;13.60;;;8.60;;
7875;SDS011;69649;53.712;9.680;2023-08-20T01:45:40;16.10;;;9.80;;
7875;SDS011;69649;53.712;9.680;2023-08-20T01:48:06;16.03;;;8.70;;
7875;SDS011;69649;53.712;9.680;2023-08-20T01:50:33;14.00;;;9.13;;
7875;SDS011;69649;53.712;9.680;2023-08-20T01:53:00;16.83;;;9.07;;
7875;SDS011;69649;53.712;9.680;2023-08-20T01:55:26;12.87;;;8.07;;
7875;SDS011;69649;53.712;9.680;2023-08-20T01:57:52;16.23;;;8.87;;
7875;SDS011;69649;53.712;9.680;2023-08-20T02:00:18;12.27;;;7.70;;
7875;SDS011;69649;53.712;9.680;2023-08-20T02:02:43;18.00;;;8.40;;
7875;SDS011;69649;53.712;9.680;2023-08-20T02:05:09;14.33;;;8.07;;
7875;SDS011;69649;53.712;9.680;2023-08-20T02:07:38;13.00;;;8.23;;
7875;SDS011;69649;53.712;9.680;2023-08-20T02:10:04;14.33;;;8.63;;
7875;SDS011;69649;53.712;9.680;2023-08-20T02:12:30;13.17;;;8.20;;
7875;SDS011;69649;53.712;9.680;2023-08-20T02:14:56;11.17;;;7.57;;
7875;SDS011;69649;53.712;9.680;2023-08-20T02:17:22;16.80;;;7.30;;
7875;SDS011;69649;53.712;9.680;2023-08-20T02:19:49;12.33;;;7.37;;
7875;SDS011;69649;53.712;9.680;2023-08-20T02:22:14;10.03;;;7.07;;
7875;SDS011;69649;53.712;9.680;2023-08-20T02:24:40;14.27;;;7.63;;
7875;SDS011;69649;53.712;9.680;2023-08-20T02:27:06;10.10;;;6.50;;
7875;SDS011;69649;53.712;9.680;2023-08-20T02:29:31;14.83;;;8.10;;
7875;SDS011;69649;53.712;9.680;2023-08-20T02:31:57;10.97;;;7.03;;
7875;SDS011;69649;53.712;9.680;2023-08-20T02:34:23;13.30;;;8.00;;
7875;SDS011;69649;53.712;9.680;2023-08-20T02:36:49;13.03;;;8.00;;
7875;SDS011;69649;53.712;9.680;2023-08-20T02:39:15;13.10;;;8.07;;
7875;SDS011;69649;53.712;9.680;2023-08-20T02:41:42;10.97;;;8.67;;
7875;SDS011;69649;53.712;9.680;2023-08-20T02:44:08;11.47;;;8.80;;
7875;SDS011;69649;53.712;9.680;2023-08-20T02:46:34;13.17;;;8.67;;
7875;SDS011;69649;53.712;9.680;2023-08-20T02:49:00;27.17;;;10.33;;
7875;SDS011;69649;53.712;9.680;2023-08-20T02:51:26;25.77;;;9.23;;
7875;SDS011;69649;53.712;9.680;2023-08-20T02:53:52;20.50;;;9.93;;
7875;SDS011;69649;53.712;9.680;2023-08-20T02:56:18;18.10;;;8.97;;
7875;SDS011;69649;53.712;9.680;2023-08-20T02:58:44;17.93;;;8.83;;
7875;SDS011;69649;53.712;9.680;2023-08-20T03:01:19;18.63;;;10.40;;
7875;SDS011;69649;53.712;9.680;2023-08-20T03:03:46;16.70;;;9.20;;
7875;SDS011;69649;53.712;9.680;2023-08-20T03:06:12;18.57;;;10.13;;
7875;SDS011;69649;53.712;9.680;2023-08-20T03:08:39;13.93;;;9.17;;
7875;SDS011;69649;53.712;9.680;2023-08-20T03:11:05;16.90;;;10.27;;
7875;SDS011;69649;53.712;9.680;2023-08-20T03:13:30;14.17;;;9.80;;
7875;SDS011;69649;53.712;9.680;2023-08-20T03:15:56;12.83;;;9.37;;
7875;SDS011;69649;53.712;9.680;2023-08-20T03:18:22;12.97;;;8.73;;
7875;SDS011;69649;53.712;9.680;2023-08-20T03:20:48;19.27;;;9.63;;
7875;SDS011;69649;53.712;9.680;2023-08-20T03:23:14;16.70;;;9.43;;
7875;SDS011;69649;53.712;9.680;2023-08-20T03:25:40;12.30;;;9.10;;
7875;SDS011;69649;53.712;9.680;2023-08-20T03:28:05;15.43;;;9.43;;
7875;SDS011;69649;53.712;9.680;2023-08-20T03:30:31;14.00;;;9.10;;
7875;SDS011;69649;53.712;9.680;2023-08-20T03:32:57;15.03;;;8.57;;
7875;SDS011;69649;53.712;9.680;2023-08-20T03:35:23;20.57;;;7.63;;
7875;SDS011;69649;53.712;9.680;2023-08-20T03:37:48;18.43;;;7.43;;
7875;SDS011;69649;53.712;9.680;2023-08-20T03:40:14;21.17;;;6.67;;
7875;SDS011;69649;53.712;9.680;2023-08-20T03:42:40;13.77;;;8.53;;
7875;SDS011;69649;53.712;9.680;2023-08-20T03:45:06;10.97;;;8.37;;
7875;SDS011;69649;53.712;9.680;2023-08-20T03:47:33;16.13;;;7.57;;
7875;SDS011;69649;53.712;9.680;2023-08-20T03:50:00;13.70;;;8.17;;
7875;SDS011;69649;53.712;9.680;2023-08-20T03:52:26;27.73;;;6.70;;
7875;SDS011;69649;53.712;9.680;2023-08-20T03:54:51;13.97;;;7.17;;
7875;SDS011;69649;53.712;9.680;2023-08-20T03:57:17;11.63;;;6.83;;
7875;SDS011;69649;53.712;9.680;2023-08-20T03:59:43;13.83;;;7.23;;
7875;SDS011;69649;53.712;9.680;2023-08-20T04:02:10;9.73;;;8.03;;
7875;SDS011;69649;53.712;9.680;2023-08-20T04:04:36;16.33;;;6.63;;
7875;SDS011;69649;53.712;9.680;2023-08-20T04:07:02;15.17;;;6.47;;
7875;SDS011;69649;53.712;9.680;2023-08-20T04:09:28;18.43;;;6.77;;
7875;SDS011;69649;53.712;9.680;2023-08-20T04:11:54;17.10;;;6.70;;
7875;SDS011;69649;53.712;9.680;2023-08-20T04:14:20;13.73;;;7.17;;
7875;SDS011;69649;53.712;9.680;2023-08-20T04:16:45;13.90;;;7.30;;
7875;SDS011;69649;53.712;9.680;2023-08-20T04:19:11;9.83;;;8.47;;
7875;SDS011;69649;53.712;9.680;2023-08-20T04:21:37;13.73;;;7.23;;
7875;SDS011;69649;53.712;9.680;2023-08-20T04:24:03;19.47;;;7.13;;
7875;SDS011;69649;53.712;9.680;2023-08-20T04:26:29;10.43;;;6.73;;
7875;SDS011;69649;53.712;9.680;2023-08-20T04:28:55;35.17;;;5.97;;
7875;SDS011;69649;53.712;9.680;2023-08-20T04:31:21;14.53;;;6.00;;
7875;SDS011;69649;53.712;9.680;2023-08-20T04:33:47;16.10;;;5.67;;
7875;SDS011;69649;53.712;9.680;2023-08-20T04:36:12;11.37;;;6.00;;
7875;SDS011;69649;53.712;9.680;2023-08-20T04:38:38;14.80;;;4.87;;
7875;SDS011;69649;53.712;9.680;2023-08-20T04:41:04;12.47;;;4.87;;
7875;SDS011;69649;53.712;9.680;2023-08-20T04:43:29;11.27;;;4.90;;
7875;SDS011;69649;53.712;9.680;2023-08-20T04:45:55;6.90;;;5.03;;
7875;SDS011;69649;53.712;9.680;2023-08-20T04:48:21;7.60;;;4.97;;
7875;SDS011;69649;53.712;9.680;2023-08-20T04:50:47;8.43;;;5.20;;
7875;SDS011;69649;53.712;9.680;2023-08-20T04:53:12;6.23;;;5.63;;
7875;SDS011;69649;53.712;9.680;2023-08-20T04:55:38;7.07;;;4.83;;
7875;SDS011;69649;53.712;9.680;2023-08-20T04:58:04;6.57;;;5.17;;
7875;SDS011;69649;53.712;9.680;2023-08-20T05:00:30;5.40;;;4.67;;
7875;SDS011;69649;53.712;9.680;2023-08-20T05:02:55;14.57;;;4.67;;
7875;SDS011;69649;53.712;9.680;2023-08-20T05:05:21;9.67;;;4.97;;
7875;SDS011;69649;53.712;9.680;2023-08-20T05:07:47;12.13;;;5.33;;
7875;SDS011;69649;53.712;9.680;2023-08-20T05:10:13;14.10;;;4.87;;
7875;SDS011;69649;53.712;9.680;2023-08-20T05:12:38;10.90;;;4.70;;
7875;SDS011;69649;53.712;9.680;2023-08-20T05:15:04;14.53;;;5.27;;
7875;SDS011;69649;53.712;9.680;2023-08-20T05:17:30;11.00;;;5.13;;
7875;SDS011;69649;53.712;9.680;2023-08-20T05:19:56;7.23;;;4.60;;
7875;SDS011;69649;53.712;9.680;2023-08-20T05:22:22;10.40;;;4.37;;
7875;SDS011;69649;53.712;9.680;2023-08-20T05:24:48;10.83;;;5.63;;
7875;SDS011;69649;53.712;9.680;2023-08-20T05:27:15;13.13;;;5.87;;
7875;SDS011;69649;53.712;9.680;2023-08-20T05:29:43;10.47;;;5.20;;
7875;SDS011;69649;53.712;9.680;2023-08-20T05:32:09;14.20;;;5.83;;
7875;SDS011;69649;53.712;9.680;2023-08-20T05:34:35;11.33;;;6.87;;
7875;SDS011;69649;53.712;9.680;2023-08-20T05:37:02;31.27;;;6.40;;
7875;SDS011;69649;53.712;9.680;2023-08-20T05:39:29;23.47;;;6.33;;
7875;SDS011;69649;53.712;9.680;2023-08-20T05:41:57;16.57;;;5.83;;
7875;SDS011;69649;53.712;9.680;2023-08-20T05:44:23;23.83;;;6.20;;
7875;SDS011;69649;53.712;9.680;2023-08-20T05:46:49;10.67;;;5.97;;
7875;SDS011;69649;53.712;9.680;2023-08-20T05:49:15;14.10;;;6.60;;
7875;SDS011;69649;53.712;9.680;2023-08-20T05:51:41;21.70;;;6.20;;
7875;SDS011;69649;53.712;9.680;2023-08-20T05:54:08;33.23;;;6.67;;
7875;SDS011;69649;53.712;9.680;2023-08-20T05:56:34;41.83;;;7.07;;
7875;SDS011;69649;53.712;9.680;2023-08-20T05:59:00;21.97;;;6.93;;
7875;SDS011;69649;53.712;9.680;2023-08-20T06:01:26;9.67;;;7.40;;
7875;SDS011;69649;53.712;9.680;2023-08-20T06:03:51;28.53;;;7.47;;
7875;SDS011;69649;53.712;9.680;2023-08-20T06:06:17;16.40;;;7.50;;
7875;SDS011;69649;53.712;9.680;2023-08-20T06:08:43;11.03;;;7.20;;
7875;SDS011;69649;53.712;9.680;2023-08-20T06:13:54;61.57;;;9.07;;
7875;SDS011;69649;53.712;9.680;2023-08-20T06:16:20;32.83;;;9.10;;
7875;SDS011;69649;53.712;9.680;2023-08-20T06:18:46;31.40;;;9.00;;
7875;SDS011;69649;53.712;9.680;2023-08-20T06:21:12;30.03;;;8.53;;
7875;SDS011;69649;53.712;9.680;2023-08-20T06:23:38;23.33;;;9.10;;
7875;SDS011;69649;53.712;9.680;2023-08-20T06:26:04;36.60;;;9.63;;
7875;SDS011;69649;53.712;9.680;2023-08-20T06:28:30;54.20;;;10.57;;
7875;SDS011;69649;53.712;9.680;2023-08-20T06:30:56;47.27;;;10.80;;
7875;SDS011;69649;53.712;9.680;2023-08-20T06:33:22;27.13;;;9.17;;
7875;SDS011;69649;53.712;9.680;2023-08-20T06:35:47;28.70;;;9.57;;
7875;SDS011;69649;53.712;9.680;2023-08-20T06:38:13;37.40;;;10.10;;
7875;SDS011;69649;53.712;9.680;2023-08-20T06:40:39;27.83;;;9.70;;
7875;SDS011;69649;53.712;9.680;2023-08-20T06:43:05;15.00;;;9.33;;
7875;SDS011;69649;53.712;9.680;2023-08-20T06:45:31;27.00;;;10.80;;
7875;SDS011;69649;53.712;9.680;2023-08-20T06:47:57;23.40;;;9.97;;
7875;SDS011;69649;53.712;9.680;2023-08-20T06:50:23;14.27;;;9.40;;
7875;SDS011;69649;53.712;9.680;2023-08-20T06:52:49;16.13;;;9.20;;
7875;SDS011;69649;53.712;9.680;2023-08-20T06:55:14;13.77;;;9.70;;
7875;SDS011;69649;53.712;9.680;2023-08-20T06:57:40;16.77;;;9.00;;
7875;SDS011;69649;53.712;9.680;2023-08-20T07:00:06;11.40;;;9.87;;
7875;SDS011;69649;53.712;9.680;2023-08-20T07:02:32;11.67;;;8.67;;
7875;SDS011;69649;53.712;9.680;2023-08-20T07:04:58;12.97;;;10.53;;
7875;SDS011;69649;53.712;9.680;2023-08-20T07:07:24;12.87;;;9.13;;
7875;SDS011;69649;53.712;9.680;2023-08-20T07:09:50;13.80;;;10.23;;
7875;SDS011;69649;53.712;9.680;2023-08-20T07:12:15;13.60;;;10.10;;
7875;SDS011;69649;53.712;9.680;2023-08-20T07:14:41;15.57;;;10.77;;
7875;SDS011;69649;53.712;9.680;2023-08-20T07:17:07;12.63;;;9.70;;
7875;SDS011;69649;53.712;9.680;2023-08-20T07:19:36;15.90;;;9.77;;
7875;SDS011;69649;53.712;9.680;2023-08-20T07:22:02;15.83;;;10.20;;
7875;SDS011;69649;53.712;9.680;2023-08-20T07:24:28;14.40;;;9.17;;
7875;SDS011;69649;53.712;9.680;2023-08-20T07:26:55;13.00;;;9.73;;
7875;SDS011;69649;53.712;9.680;2023-08-20T07:29:23;16.73;;;11.20;;
7875;SDS011;69649;53.712;9.680;2023-08-20T07:31:49;16.87;;;9.77;;
7875;SDS011;69649;53.712;9.680;2023-08-20T07:34:15;13.57;;;9.97;;
7875;SDS011;69649;53.712;9.680;2023-08-20T07:36:41;14.80;;;10.07;;
7875;SDS011;69649;53.712;9.680;2023-08-20T07:39:07;14.53;;;11.07;;
7875;SDS011;69649;53.712;9.680;2023-08-20T07:41:34;17.53;;;10.47;;
7875;SDS011;69649;53.712;9.680;2023-08-20T07:43:59;19.10;;;11.07;;
7875;SDS011;69649;53.712;9.680;2023-08-20T07:46:25;13.30;;;9.07;;
7875;SDS011;69649;53.712;9.680;2023-08-20T07:48:51;13.67;;;8.70;;
7875;SDS011;69649;53.712;9.680;2023-08-20T07:51:17;11.60;;;8.77;;
7875;SDS011;69649;53.712;9.680;2023-08-20T07:53:43;10.20;;;8.33;;
7875;SDS011;69649;53.712;9.680;2023-08-20T07:56:09;11.90;;;8.23;;
7875;SDS011;69649;53.712;9.680;2023-08-20T07:58:34;11.13;;;8.37;;
7875;SDS011;69649;53.712;9.680;2023-08-20T08:01:00;10.90;;;7.97;;
7875;SDS011;69649;53.712;9.680;2023-08-20T08:03:26;9.50;;;7.50;;
7875;SDS011;69649;53.712;9.680;2023-08-20T08:05:52;7.97;;;6.73;;
7875;SDS011;69649;53.712;9.680;2023-08-20T08:08:19;10.80;;;7.30;;
7875;SDS011;69649;53.712;9.680;2023-08-20T08:10:45;8.40;;;6.60;;
7875;SDS011;69649;53.712;9.680;2023-08-20T08:13:12;9.93;;;6.60;;
7875;SDS011;69649;53.712;9.680;2023-08-20T08:15:38;7.83;;;4.83;;
7875;SDS011;69649;53.712;9.680;2023-08-20T08:18:04;8.93;;;5.80;;
7875;SDS011;69649;53.712;9.680;2023-08-20T08:20:30;8.00;;;5.87;;
7875;SDS011;69649;53.712;9.680;2023-08-20T08:22:57;9.23;;;5.83;;
7875;SDS011;69649;53.712;9.680;2023-08-20T08:25:22;9.20;;;5.37;;
7875;SDS011;69649;53.712;9.680;2023-08-20T08:27:48;7.03;;;5.30;;
7875;SDS011;69649;53.712;9.680;2023-08-20T08:30:14;7.30;;;5.87;;
7875;SDS011;69649;53.712;9.680;2023-08-20T08:32:40;9.40;;;5.20;;
7875;SDS011;69649;53.712;9.680;2023-08-20T08:35:06;11.77;;;4.50;;
7875;SDS011;69649;53.712;9.680;2023-08-20T08:37:33;8.10;;;4.10;;
7875;SDS011;69649;53.712;9.680;2023-08-20T08:39:59;6.10;;;4.20;;
7875;SDS011;69649;53.712;9.680;2023-08-20T08:42:24;6.70;;;4.70;;
7875;SDS011;69649;53.712;9.680;2023-08-20T08:44:51;9.50;;;4.97;;
7875;SDS011;69649;53.712;9.680;2023-08-20T08:47:21;8.77;;;4.77;;
7875;SDS011;69649;53.712;9.680;2023-08-20T08:49:47;8.50;;;4.30;;
7875;SDS011;69649;53.712;9.680;2023-08-20T08:52:14;8.20;;;4.40;;
7875;SDS011;69649;53.712;9.680;2023-08-20T08:54:41;7.10;;;4.13;;
7875;SDS011;69649;53.712;9.680;2023-08-20T08:57:07;5.53;;;3.53;;
7875;SDS011;69649;53.712;9.680;2023-08-20T08:59:33;7.53;;;4.10;;
7875;SDS011;69649;53.712;9.680;2023-08-20T09:01:59;7.13;;;3.70;;
7875;SDS011;69649;53.712;9.680;2023-08-20T09:04:25;7.03;;;4.10;;
7875;SDS011;69649;53.712;9.680;2023-08-20T09:06:55;3.83;;;3.17;;
7875;SDS011;69649;53.712;9.680;2023-08-20T09:09:20;7.53;;;3.97;;
7875;SDS011;69649;53.712;9.680;2023-08-20T09:11:47;5.47;;;3.70;;
7875;SDS011;69649;53.712;9.680;2023-08-20T09:14:20;9.17;;;3.80;;
7875;SDS011;69649;53.712;9.680;2023-08-20T09:16:59;9.77;;;4.83;;
7875;SDS011;69649;53.712;9.680;2023-08-20T09:19:30;6.87;;;3.77;;
7875;SDS011;69649;53.712;9.680;2023-08-20T09:21:58;9.70;;;3.67;;
7875;SDS011;69649;53.712;9.680;2023-08-20T09:24:39;6.97;;;3.47;;
7875;SDS011;69649;53.712;9.680;2023-08-20T09:27:08;6.17;;;3.23;;
7875;SDS011;69649;53.712;9.680;2023-08-20T09:29:43;7.37;;;3.43;;
7875;SDS011;69649;53.712;9.680;2023-08-20T09:32:18;6.20;;;2.97;;
7875;SDS011;69649;53.712;9.680;2023-08-20T09:34:45;5.10;;;3.47;;
7875;SDS011;69649;53.712;9.680;2023-08-20T09:37:14;7.63;;;3.97;;
7875;SDS011;69649;53.712;9.680;2023-08-20T09:39:41;6.57;;;4.37;;
7875;SDS011;69649;53.712;9.680;2023-08-20T09:42:08;8.53;;;4.40;;
7875;SDS011;69649;53.712;9.680;2023-08-20T09:44:35;5.27;;;3.37;;
7875;SDS011;69649;53.712;9.680;2023-08-20T09:47:03;4.43;;;3.00;;
7875;SDS011;69649;53.712;9.680;2023-08-20T09:49:32;6.43;;;3.00;;
7875;SDS011;69649;53.712;9.680;2023-08-20T09:52:07;8.20;;;3.73;;
7875;SDS011;69649;53.712;9.680;2023-08-20T09:54:34;4.97;;;3.50;;
7875;SDS011;69649;53.712;9.680;2023-08-20T09:57:23;5.90;;;3.57;;
7875;SDS011;69649;53.712;9.680;2023-08-20T09:59:59;6.57;;;3.40;;
7875;SDS011;69649;53.712;9.680;2023-08-20T10:02:25;6.45;;;4.28;;
7875;SDS011;69649;53.712;9.680;2023-08-20T10:04:52;9.07;;;4.03;;
7875;SDS011;69649;53.712;9.680;2023-08-20T10:07:18;5.40;;;3.10;;
7875;SDS011;69649;53.712;9.680;2023-08-20T10:09:44;6.57;;;3.97;;
7875;SDS011;69649;53.712;9.680;2023-08-20T10:12:12;8.60;;;2.90;;
7875;SDS011;69649;53.712;9.680;2023-08-20T10:14:39;6.33;;;3.40;;
7875;SDS011;69649;53.712;9.680;2023-08-20T10:17:07;8.07;;;3.30;;
7875;SDS011;69649;53.712;9.680;2023-08-20T10:19:35;7.57;;;3.40;;
7875;SDS011;69649;53.712;9.680;2023-08-20T10:22:03;7.17;;;2.57;;
7875;SDS011;69649;53.712;9.680;2023-08-20T10:24:39;4.13;;;3.50;;
7875;SDS011;69649;53.712;9.680;2023-08-20T10:27:07;5.83;;;3.63;;
7875;SDS011;69649;53.712;9.680;2023-08-20T10:29:35;8.07;;;3.53;;
7875;SDS011;69649;53.712;9.680;2023-08-20T10:32:04;10.37;;;6.90;;
7875;SDS011;69649;53.712;9.680;2023-08-20T10:34:38;8.88;;;4.60;;
7875;SDS011;69649;53.712;9.680;2023-08-20T10:37:14;4.30;;;2.23;;
7875;SDS011;69649;53.712;9.680;2023-08-20T10:39:41;8.57;;;2.60;;
7875;SDS011;69649;53.712;9.680;2023-08-20T10:42:09;8.07;;;3.30;;
7875;SDS011;69649;53.712;9.680;2023-08-20T10:44:56;5.83;;;3.67;;
7875;SDS011;69649;53.712;9.680;2023-08-20T10:47:35;7.58;;;2.77;;
7875;SDS011;69649;53.712;9.680;2023-08-20T10:50:09;4.42;;;2.42;;
7875;SDS011;69649;53.712;9.680;2023-08-20T10:52:48;4.87;;;2.50;;
7875;SDS011;69649;53.712;9.680;2023-08-20T10:55:13;5.57;;;2.40;;
7875;SDS011;69649;53.712;9.680;2023-08-20T10:57:40;3.37;;;1.98;;
7875;SDS011;69649;53.712;9.680;2023-08-20T11:00:06;5.78;;;2.45;;
7875;SDS011;69649;53.712;9.680;2023-08-20T11:02:38;3.80;;;2.30;;
7875;SDS011;69649;53.712;9.680;2023-08-20T11:05:09;4.87;;;2.05;;
7875;SDS011;69649;53.712;9.680;2023-08-20T11:07:37;6.12;;;2.98;;
7875;SDS011;69649;53.712;9.680;2023-08-20T11:10:04;7.03;;;2.50;;
7875;SDS011;69649;53.712;9.680;2023-08-20T11:12:32;4.08;;;2.50;;
7875;SDS011;69649;53.712;9.680;2023-08-20T11:15:02;5.37;;;2.37;;
7875;SDS011;69649;53.712;9.680;2023-08-20T11:17:28;5.10;;;2.10;;
7875;SDS011;69649;53.712;9.680;2023-08-20T11:19:55;5.60;;;2.30;;
7875;SDS011;69649;53.712;9.680;2023-08-20T11:22:21;4.47;;;2.52;;
7875;SDS011;69649;53.712;9.680;2023-08-20T11:24:46;4.80;;;2.98;;
7875;SDS011;69649;53.712;9.680;2023-08-20T11:27:12;3.47;;;2.37;;
7875;SDS011;69649;53.712;9.680;2023-08-20T11:29:41;5.47;;;2.02;;
7875;SDS011;69649;53.712;9.680;2023-08-20T11:32:09;3.47;;;1.75;;
7875;SDS011;69649;53.712;9.680;2023-08-20T11:34:36;4.87;;;2.77;;
7875;SDS011;69649;53.712;9.680;2023-08-20T11:37:04;4.80;;;2.37;;
7875;SDS011;69649;53.712;9.680;2023-08-20T11:39:31;2.62;;;2.27;;
7875;SDS011;69649;53.712;9.680;2023-08-20T11:41:57;3.22;;;1.80;;
7875;SDS011;69649;53.712;9.680;2023-08-20T11:44:24;3.75;;;2.33;;
7875;SDS011;69649;53.712;9.680;2023-08-20T11:46:51;3.65;;;2.20;;
7875;SDS011;69649;53.712;9.680;2023-08-20T11:49:26;3.45;;;2.22;;
7875;SDS011;69649;53.712;9.680;2023-08-20T11:51:47;4.37;;;1.85;;
7875;SDS011;69649;53.712;9.680;2023-08-20T11:54:15;2.87;;;2.20;;
7875;SDS011;69649;53.712;9.680;2023-08-20T11:56:50;5.40;;;2.33;;
7875;SDS011;69649;53.712;9.680;2023-08-20T11:59:14;3.62;;;1.82;;
7875;SDS011;69649;53.712;9.680;2023-08-20T12:01:41;5.40;;;2.80;;
7875;SDS011;69649;53.712;9.680;2023-08-20T12:04:08;3.75;;;2.75;;
7875;SDS011;69649;53.712;9.680;2023-08-20T12:06:35;5.40;;;2.60;;
7875;SDS011;69649;53.712;9.680;2023-08-20T12:09:18;3.62;;;2.15;;
7875;SDS011;69649;53.712;9.680;2023-08-20T12:11:49;5.45;;;2.20;;
7875;SDS011;69649;53.712;9.680;2023-08-20T12:14:17;2.35;;;1.90;;
7875;SDS011;69649;53.712;9.680;2023-08-20T12:16:44;3.87;;;2.62;;
7875;SDS011;69649;53.712;9.680;2023-08-20T12:19:10;2.80;;;2.20;;
7875;SDS011;69649;53.712;9.680;2023-08-20T12:21:39;2.67;;;1.77;;
7875;SDS011;69649;53.712;9.680;2023-08-20T12:24:06;3.62;;;1.55;;
7875;SDS011;69649;53.712;9.680;2023-08-20T12:26:33;2.20;;;1.90;;
7875;SDS011;69649;53.712;9.680;2023-08-20T12:28:59;4.70;;;2.30;;
7875;SDS011;69649;53.712;9.680;2023-08-20T12:31:25;2.75;;;1.98;;
7875;SDS011;69649;53.712;9.680;2023-08-20T12:33:50;2.62;;;1.80;;
7875;SDS011;69649;53.712;9.680;2023-08-20T12:36:16;4.62;;;2.40;;
7875;SDS011;69649;53.712;9.680;2023-08-20T12:38:42;6.42;;;1.20;;
7875;SDS011;69649;53.712;9.680;2023-08-20T12:41:08;1.92;;;1.35;;
7875;SDS011;69649;53.712;9.680;2023-08-20T12:43:34;3.90;;;1.52;;
7875;SDS011;69649;53.712;9.680;2023-08-20T12:45:59;3.47;;;1.62;;
7875;SDS011;69649;53.712;9.680;2023-08-20T12:48:25;3.42;;;1.77;;
7875;SDS011;69649;53.712;9.680;2023-08-20T12:50:51;4.58;;;2.17;;
7875;SDS011;69649;53.712;9.680;2023-08-20T12:53:16;2.12;;;1.80;;
7875;SDS011;69649;53.712;9.680;2023-08-20T12:55:42;2.55;;;2.35;;
7875;SDS011;69649;53.712;9.680;2023-08-20T12:58:08;3.55;;;1.87;;
7875;SDS011;69649;53.712;9.680;2023-08-20T13:00:34;3.52;;;2.62;;
7875;SDS011;69649;53.712;9.680;2023-08-20T13:03:00;3.33;;;1.60;;
7875;SDS011;69649;53.712;9.680;2023-08-20T13:05:27;5.28;;;2.27;;
7875;SDS011;69649;53.712;9.680;2023-08-20T13:07:53;2.62;;;2.15;;
7875;SDS011;69649;53.712;9.680;2023-08-20T13:10:22;2.70;;;1.60;;
7875;SDS011;69649;53.712;9.680;2023-08-20T13:13:09;3.92;;;1.45;;
7875;SDS011;69649;53.712;9.680;2023-08-20T13:15:36;2.52;;;2.10;;
7875;SDS011;69649;53.712;9.680;2023-08-20T13:18:02;3.58;;;2.00;;
7875;SDS011;69649;53.712;9.680;2023-08-20T13:20:29;2.67;;;1.77;;
7875;SDS011;69649;53.712;9.680;2023-08-20T13:22:55;5.53;;;2.02;;
7875;SDS011;69649;53.712;9.680;2023-08-20T13:25:21;2.77;;;1.75;;
7875;SDS011;69649;53.712;9.680;2023-08-20T13:27:47;2.10;;;1.90;;
7875;SDS011;69649;53.712;9.680;2023-08-20T13:30:13;2.72;;;1.75;;
7875;SDS011;69649;53.712;9.680;2023-08-20T13:32:39;2.15;;;1.20;;
7875;SDS011;69649;53.712;9.680;2023-08-20T13:35:05;3.33;;;1.25;;
7875;SDS011;69649;53.712;9.680;2023-08-20T13:37:31;3.52;;;1.80;;
7875;SDS011;69649;53.712;9.680;2023-08-20T13:39:57;5.28;;;1.82;;
7875;SDS011;69649;53.712;9.680;2023-08-20T13:42:23;3.37;;;1.32;;
7875;SDS011;69649;53.712;9.680;2023-08-20T13:44:50;5.70;;;1.30;;
7875;SDS011;69649;53.712;9.680;2023-08-20T13:47:16;1.50;;;1.05;;
7875;SDS011;69649;53.712;9.680;2023-08-20T13:49:41;3.40;;;1.52;;
7875;SDS011;69649;53.712;9.680;2023-08-20T13:52:07;3.40;;;1.20;;
7875;SDS011;69649;53.712;9.680;2023-08-20T13:54:36;4.10;;;1.90;;
7875;SDS011;69649;53.712;9.680;2023-08-20T13:59:48;3.87;;;1.32;;
7875;SDS011;69649;53.712;9.680;2023-08-20T14:02:14;5.92;;;1.70;;
7875;SDS011;69649;53.712;9.680;2023-08-20T14:04:40;3.67;;;1.80;;
7875;SDS011;69649;53.712;9.680;2023-08-20T14:07:06;3.67;;;2.33;;
7875;SDS011;69649;53.712;9.680;2023-08-20T14:09:32;5.67;;;1.70;;
7875;SDS011;69649;53.712;9.680;2023-08-20T14:12:00;4.90;;;1.72;;
7875;SDS011;69649;53.712;9.680;2023-08-20T14:14:26;5.42;;;2.10;;
7875;SDS011;69649;53.712;9.680;2023-08-20T14:16:52;5.17;;;1.60;;
7875;SDS011;69649;53.712;9.680;2023-08-20T14:19:18;8.73;;;2.25;;
7875;SDS011;69649;53.712;9.680;2023-08-20T14:21:43;4.97;;;2.60;;
7875;SDS011;69649;53.712;9.680;2023-08-20T14:24:09;4.92;;;2.30;;
7875;SDS011;69649;53.712;9.680;2023-08-20T14:26:35;4.53;;;2.62;;
7875;SDS011;69649;53.712;9.680;2023-08-20T14:29:01;5.40;;;2.35;;
7875;SDS011;69649;53.712;9.680;2023-08-20T14:31:27;3.02;;;1.98;;
7875;SDS011;69649;53.712;9.680;2023-08-20T14:33:52;7.85;;;2.47;;
7875;SDS011;69649;53.712;9.680;2023-08-20T14:36:18;3.72;;;2.12;;
7875;SDS011;69649;53.712;9.680;2023-08-20T14:38:44;3.98;;;1.95;;
7875;SDS011;69649;53.712;9.680;2023-08-20T14:41:10;6.40;;;2.67;;
7875;SDS011;69649;53.712;9.680;2023-08-20T14:43:35;4.60;;;2.35;;
7875;SDS011;69649;53.712;9.680;2023-08-20T14:46:01;4.55;;;2.00;;
7875;SDS011;69649;53.712;9.680;2023-08-20T14:48:27;4.15;;;1.87;;
7875;SDS011;69649;53.712;9.680;2023-08-20T14:50:53;4.33;;;1.77;;
7875;SDS011;69649;53.712;9.680;2023-08-20T14:53:19;4.35;;;1.42;;
7875;SDS011;69649;53.712;9.680;2023-08-20T14:55:45;2.75;;;1.52;;
7875;SDS011;69649;53.712;9.680;2023-08-20T14:58:11;5.08;;;1.85;;
7875;SDS011;69649;53.712;9.680;2023-08-20T15:00:38;4.45;;;2.00;;
7875;SDS011;69649;53.712;9.680;2023-08-20T15:03:04;6.17;;;1.65;;
7875;SDS011;69649;53.712;9.680;2023-08-20T15:05:30;4.53;;;1.82;;